createdAt,value
2019-01-31T00:00:07.285Z,86.00
2019-01-31T00:01:07.241Z,86.38
2019-01-31T00:02:07.192Z,86.10
2019-01-31T00:03:07.166Z,86.19
2019-01-31T00:04:07.117Z,86.10
2019-01-31T00:05:07.088Z,86.38
2019-01-31T00:06:07.042Z,86.19
2019-01-31T00:07:07.002Z,86.19
2019-01-31T00:08:07.076Z,86.19
2019-01-31T00:09:06.916Z,86.19
2019-01-31T00:10:06.882Z,85.62
2019-01-31T00:11:06.837Z,85.91
2019-01-31T00:12:06.793Z,85.62
2019-01-31T00:13:15.398Z,86.19
2019-01-31T00:15:11.153Z,85.62
2019-01-31T00:16:11.091Z,85.53
2019-01-31T00:17:11.049Z,85.62
2019-01-31T00:18:11.012Z,86.47
2019-01-31T00:19:10.969Z,85.62
2019-01-31T00:20:10.923Z,85.72
2019-01-31T00:21:10.889Z,85.24
2019-01-31T00:22:10.847Z,85.43
2019-01-31T00:23:10.808Z,85.62
2019-01-31T00:24:10.763Z,85.72
2019-01-31T00:25:10.723Z,85.24
2019-01-31T00:26:10.678Z,84.68
2019-01-31T00:27:10.641Z,84.58
2019-01-31T00:28:10.602Z,84.68
2019-01-31T00:29:10.558Z,85.62
2019-01-31T00:30:10.512Z,85.34
2019-01-31T00:31:10.483Z,85.81
2019-01-31T00:32:10.449Z,85.72
2019-01-31T00:33:10.404Z,85.43
2019-01-31T00:34:10.376Z,85.81
2019-01-31T00:35:10.323Z,86.19
2019-01-31T00:36:10.283Z,86.10
2019-01-31T00:37:10.238Z,86.38
2019-01-31T00:38:10.190Z,85.91
2019-01-31T00:39:10.154Z,86.00
2019-01-31T00:40:10.114Z,86.29
2019-01-31T00:41:10.085Z,86.10
2019-01-31T00:42:10.039Z,86.19
2019-01-31T00:43:09.997Z,86.10
2019-01-31T00:44:09.952Z,86.29
2019-01-31T00:45:09.914Z,86.19
2019-01-31T00:46:09.870Z,86.10
2019-01-31T00:47:09.839Z,86.19
2019-01-31T00:48:09.787Z,86.38
2019-01-31T00:49:09.745Z,86.10
2019-01-31T00:50:09.717Z,86.38
2019-01-31T00:51:09.661Z,86.47
2019-01-31T00:52:09.631Z,86.00
2019-01-31T00:53:09.591Z,86.29
2019-01-31T00:54:09.570Z,86.38
2019-01-31T00:55:09.508Z,86.19
2019-01-31T00:56:09.478Z,86.47
2019-01-31T00:57:09.425Z,86.38
2019-01-31T00:58:09.381Z,86.94
2019-01-31T00:59:09.350Z,86.94
2019-01-31T01:00:09.316Z,87.32
2019-01-31T01:01:09.264Z,87.13
2019-01-31T01:02:09.213Z,86.94
2019-01-31T01:03:09.183Z,86.94
2019-01-31T01:04:09.151Z,87.13
2019-01-31T01:05:09.114Z,87.32
2019-01-31T01:06:09.059Z,87.32
2019-01-31T01:07:09.022Z,87.42
2019-01-31T01:08:08.976Z,87.04
2019-01-31T01:09:08.942Z,87.23
2019-01-31T01:10:08.902Z,87.23
2019-01-31T01:11:08.862Z,87.61
2019-01-31T01:12:08.814Z,87.51
2019-01-31T01:13:08.783Z,87.51
2019-01-31T01:14:08.737Z,87.23
2019-01-31T01:15:08.692Z,87.32
2019-01-31T01:16:08.654Z,87.61
2019-01-31T01:17:08.614Z,87.51
2019-01-31T01:18:08.574Z,87.32
2019-01-31T01:19:08.536Z,87.79
2019-01-31T01:20:08.493Z,87.42
2019-01-31T01:21:08.447Z,87.13
2019-01-31T01:22:08.416Z,87.89
2019-01-31T01:23:08.371Z,87.51
2019-01-31T01:24:08.336Z,87.23
2019-01-31T01:25:08.295Z,87.04
2019-01-31T01:26:08.250Z,87.23
2019-01-31T01:27:08.213Z,87.13
2019-01-31T01:28:08.172Z,87.51
2019-01-31T01:29:08.130Z,87.13
2019-01-31T01:30:08.086Z,87.51
2019-01-31T01:31:08.050Z,88.08
2019-01-31T01:32:08.014Z,88.27
2019-01-31T01:33:07.967Z,87.70
2019-01-31T01:34:07.927Z,87.51
2019-01-31T01:35:07.883Z,88.17
2019-01-31T01:36:07.842Z,88.17
2019-01-31T01:37:07.799Z,87.89
2019-01-31T01:38:07.753Z,88.27
2019-01-31T01:39:18.602Z,88.17
2019-01-31T01:40:07.672Z,88.17
2019-01-31T01:41:07.635Z,88.46
2019-01-31T01:42:07.595Z,88.27
2019-01-31T01:43:07.559Z,87.89
2019-01-31T01:44:07.517Z,88.08
2019-01-31T01:45:07.467Z,88.04
2019-01-31T01:46:07.435Z,88.55
2019-01-31T01:47:07.388Z,88.42
2019-01-31T01:48:07.351Z,88.60
2019-01-31T01:49:07.306Z,88.42
2019-01-31T01:50:07.261Z,87.94
2019-01-31T01:51:07.233Z,87.47
2019-01-31T01:52:07.186Z,87.47
2019-01-31T01:53:07.146Z,87.47
2019-01-31T01:54:07.107Z,87.47
2019-01-31T01:55:07.058Z,87.37
2019-01-31T01:56:07.026Z,88.32
2019-01-31T01:57:06.981Z,88.32
2019-01-31T01:58:06.942Z,88.93
2019-01-31T01:59:06.902Z,88.55
2019-01-31T02:00:06.859Z,89.17
2019-01-31T02:01:06.812Z,88.84
2019-01-31T02:02:06.773Z,88.42
2019-01-31T02:03:06.733Z,88.32
2019-01-31T02:04:06.693Z,88.42
2019-01-31T02:05:06.642Z,88.32
2019-01-31T02:06:06.608Z,88.42
2019-01-31T02:07:15.208Z,88.70
2019-01-31T02:24:54.957Z,88.60
2019-01-31T02:25:38.742Z,88.32
2019-01-31T02:26:38.703Z,88.42
2019-01-31T02:27:38.665Z,88.23
2019-01-31T02:28:38.628Z,88.42
2019-01-31T02:29:38.588Z,88.51
2019-01-31T02:30:38.544Z,88.42
2019-01-31T02:31:38.493Z,87.75
2019-01-31T02:32:38.456Z,87.75
2019-01-31T02:33:38.411Z,87.66
2019-01-31T02:34:38.368Z,87.66
2019-01-31T02:35:38.328Z,87.28
2019-01-31T02:36:38.288Z,87.18
2019-01-31T02:37:38.250Z,87.18
2019-01-31T02:38:38.232Z,87.28
2019-01-31T02:39:43.313Z,87.18
2019-01-31T02:40:38.129Z,87.37
2019-01-31T02:41:38.084Z,87.47
2019-01-31T02:42:38.043Z,86.99
2019-01-31T02:43:38.005Z,86.99
2019-01-31T02:44:37.959Z,87.09
2019-01-31T02:45:37.922Z,87.18
2019-01-31T02:46:37.879Z,87.28
2019-01-31T02:47:37.843Z,87.37
2019-01-31T02:48:37.795Z,87.47
2019-01-31T02:49:37.754Z,87.37
2019-01-31T02:50:37.723Z,87.94
2019-01-31T02:51:37.674Z,87.18
2019-01-31T02:52:37.635Z,87.47
2019-01-31T02:53:37.590Z,87.18
2019-01-31T02:54:37.550Z,87.37
2019-01-31T02:55:37.505Z,87.28
2019-01-31T02:56:37.469Z,88.13
2019-01-31T02:57:37.428Z,87.94
2019-01-31T02:58:37.390Z,87.94
2019-01-31T02:59:37.350Z,88.23
2019-01-31T03:00:37.310Z,87.47
2019-01-31T03:01:37.273Z,87.18
2019-01-31T03:02:37.231Z,87.28
2019-01-31T03:03:37.186Z,87.28
2019-01-31T03:04:37.136Z,87.47
2019-01-31T03:05:37.101Z,87.28
2019-01-31T03:06:37.061Z,87.66
2019-01-31T03:07:37.007Z,87.85
2019-01-31T03:08:36.971Z,87.66
2019-01-31T03:09:36.936Z,88.04
2019-01-31T03:10:39.318Z,88.13
2019-01-31T03:11:36.855Z,88.04
2019-01-31T03:12:36.813Z,88.42
2019-01-31T03:13:36.775Z,88.70
2019-01-31T03:14:36.726Z,88.42
2019-01-31T03:15:36.701Z,88.60
2019-01-31T03:16:36.657Z,89.07
2019-01-31T03:17:36.609Z,89.17
2019-01-31T03:18:36.560Z,89.17
2019-01-31T03:19:36.527Z,88.79
2019-01-31T03:20:36.483Z,89.17
2019-01-31T03:21:36.444Z,88.89
2019-01-31T03:22:36.398Z,89.07
2019-01-31T03:23:36.360Z,89.73
2019-01-31T03:24:36.313Z,89.92
2019-01-31T03:25:36.276Z,89.73
2019-01-31T03:26:36.222Z,89.73
2019-01-31T03:27:36.192Z,89.83
2019-01-31T03:28:36.146Z,89.92
2019-01-31T03:29:36.120Z,89.83
2019-01-31T03:30:36.072Z,89.88
2019-01-31T03:31:36.040Z,89.88
2019-01-31T03:32:35.977Z,89.88
2019-01-31T03:33:35.951Z,89.31
2019-01-31T03:34:35.899Z,89.40
2019-01-31T03:35:35.861Z,89.88
2019-01-31T03:36:35.830Z,89.40
2019-01-31T03:37:35.776Z,89.59
2019-01-31T03:38:35.741Z,89.69
2019-01-31T03:39:35.683Z,89.69
2019-01-31T03:40:35.646Z,89.69
2019-01-31T03:41:35.607Z,89.78
2019-01-31T03:42:35.581Z,88.84
2019-01-31T03:43:35.528Z,89.03
2019-01-31T03:44:35.496Z,89.12
2019-01-31T03:45:35.443Z,88.93
2019-01-31T03:46:35.399Z,89.03
2019-01-31T03:47:35.360Z,89.78
2019-01-31T03:48:35.321Z,89.78
2019-01-31T03:49:35.278Z,89.59
2019-01-31T03:50:35.233Z,89.40
2019-01-31T03:51:35.194Z,89.69
2019-01-31T03:52:35.144Z,89.78
2019-01-31T03:53:35.112Z,89.97
2019-01-31T03:54:35.070Z,89.40
2019-01-31T03:55:35.038Z,89.59
2019-01-31T03:56:34.979Z,89.50
2019-01-31T03:57:34.942Z,89.78
2019-01-31T03:58:34.904Z,89.40
2019-01-31T03:59:34.869Z,89.78
2019-01-31T04:00:34.813Z,89.40
2019-01-31T04:01:34.769Z,89.22
2019-01-31T04:02:43.378Z,89.78
2019-01-31T04:04:39.134Z,88.93
2019-01-31T04:05:39.054Z,88.75
2019-01-31T04:06:39.024Z,88.75
2019-01-31T04:07:38.979Z,89.12
2019-01-31T04:08:38.932Z,88.93
2019-01-31T04:09:38.894Z,89.12
2019-01-31T04:10:38.863Z,89.31
2019-01-31T04:11:38.810Z,88.37
2019-01-31T04:12:38.779Z,88.65
2019-01-31T04:13:38.723Z,88.93
2019-01-31T04:14:38.689Z,88.65
2019-01-31T04:15:38.656Z,88.46
2019-01-31T04:16:38.605Z,88.65
2019-01-31T04:17:38.558Z,88.75
2019-01-31T04:18:38.529Z,89.22
2019-01-31T04:19:38.475Z,88.75
2019-01-31T04:20:38.434Z,89.03
2019-01-31T04:21:38.405Z,88.93
2019-01-31T04:22:38.351Z,88.37
2019-01-31T04:23:38.306Z,88.28
2019-01-31T04:24:38.269Z,87.99
2019-01-31T04:25:38.219Z,88.09
2019-01-31T04:26:38.181Z,88.46
2019-01-31T04:27:38.129Z,87.90
2019-01-31T04:28:38.096Z,87.43
2019-01-31T04:29:38.050Z,87.71
2019-01-31T04:30:38.011Z,87.90
2019-01-31T04:31:37.970Z,87.99
2019-01-31T04:32:37.925Z,87.80
2019-01-31T04:33:37.951Z,88.09
2019-01-31T04:34:37.844Z,87.71
2019-01-31T04:35:37.801Z,88.09
2019-01-31T04:36:37.761Z,87.80
2019-01-31T04:37:37.727Z,88.18
2019-01-31T04:38:37.674Z,87.80
2019-01-31T04:39:37.636Z,88.37
2019-01-31T04:40:37.593Z,88.18
2019-01-31T04:41:37.554Z,88.18
2019-01-31T04:42:37.509Z,88.18
2019-01-31T04:43:37.459Z,87.99
2019-01-31T04:44:37.434Z,88.28
2019-01-31T04:45:37.380Z,88.09
2019-01-31T04:46:37.335Z,88.37
2019-01-31T04:47:37.301Z,87.90
2019-01-31T04:48:37.260Z,87.80
2019-01-31T04:49:37.211Z,87.80
2019-01-31T04:50:37.180Z,88.09
2019-01-31T04:51:37.246Z,87.80
2019-01-31T04:52:37.091Z,87.71
2019-01-31T04:53:37.045Z,87.24
2019-01-31T04:54:36.996Z,86.95
2019-01-31T04:55:36.960Z,87.24
2019-01-31T04:56:36.921Z,87.05
2019-01-31T04:57:36.881Z,87.14
2019-01-31T04:58:36.837Z,86.95
2019-01-31T04:59:36.794Z,87.14
2019-01-31T05:00:36.741Z,86.86
2019-01-31T05:01:36.702Z,87.24
2019-01-31T05:02:36.661Z,87.05
2019-01-31T05:03:36.640Z,87.14
2019-01-31T05:04:36.591Z,86.95
2019-01-31T05:05:36.605Z,87.05
2019-01-31T05:06:36.499Z,86.95
2019-01-31T05:07:36.455Z,87.24
2019-01-31T05:08:36.419Z,86.67
2019-01-31T05:09:36.378Z,86.76
2019-01-31T05:10:43.207Z,86.76
2019-01-31T05:11:36.287Z,86.95
2019-01-31T05:12:36.241Z,86.76
2019-01-31T05:13:36.201Z,86.95
2019-01-31T05:14:36.158Z,86.29
2019-01-31T05:15:36.117Z,86.38
2019-01-31T05:16:36.087Z,86.38
2019-01-31T05:17:36.048Z,86.38
2019-01-31T05:18:35.993Z,86.48
2019-01-31T05:19:35.957Z,86.19
2019-01-31T05:20:35.908Z,85.72
2019-01-31T05:21:35.873Z,86.29
2019-01-31T05:22:35.825Z,85.63
2019-01-31T05:23:35.784Z,85.91
2019-01-31T05:24:35.744Z,85.72
2019-01-31T05:25:35.702Z,85.72
2019-01-31T05:26:35.661Z,85.72
2019-01-31T05:27:35.622Z,85.72
2019-01-31T05:28:35.582Z,86.19
2019-01-31T05:29:35.538Z,85.91
2019-01-31T05:30:35.501Z,86.38
2019-01-31T05:31:35.447Z,86.76
2019-01-31T05:32:35.412Z,86.48
2019-01-31T05:33:35.372Z,86.99
2019-01-31T05:34:35.327Z,86.99
2019-01-31T05:35:35.292Z,86.33
2019-01-31T05:36:35.247Z,86.33
2019-01-31T05:37:35.213Z,86.71
2019-01-31T05:38:35.159Z,86.62
2019-01-31T05:39:35.134Z,86.71
2019-01-31T05:40:35.086Z,86.90
2019-01-31T05:41:35.043Z,86.99
2019-01-31T05:42:34.998Z,87.09
2019-01-31T05:43:34.963Z,87.37
2019-01-31T05:44:34.918Z,86.90
2019-01-31T05:45:34.867Z,86.71
2019-01-31T05:46:34.835Z,86.62
2019-01-31T05:47:34.789Z,86.90
2019-01-31T05:48:34.740Z,86.71
2019-01-31T05:49:34.719Z,86.71
2019-01-31T05:50:34.667Z,87.18
2019-01-31T05:51:34.627Z,86.71
2019-01-31T05:52:34.578Z,86.71
2019-01-31T05:53:34.537Z,87.09
2019-01-31T05:54:34.484Z,86.90
2019-01-31T05:55:34.460Z,86.99
2019-01-31T05:56:34.421Z,86.52
2019-01-31T05:57:34.375Z,87.37
2019-01-31T05:58:42.988Z,87.18
2019-01-31T06:00:36.750Z,87.37
2019-01-31T06:01:27.613Z,87.66
2019-01-31T06:02:27.564Z,87.18
2019-01-31T06:03:27.514Z,87.47
2019-01-31T06:04:27.471Z,87.56
2019-01-31T06:05:27.428Z,87.85
2019-01-31T06:06:27.395Z,87.85
2019-01-31T06:07:27.341Z,88.42
2019-01-31T06:08:27.294Z,88.42
2019-01-31T06:09:27.258Z,89.07
2019-01-31T06:10:27.221Z,89.17
2019-01-31T06:11:27.195Z,89.07
2019-01-31T06:12:27.144Z,89.07
2019-01-31T06:13:27.105Z,89.64
2019-01-31T06:14:27.061Z,89.73
2019-01-31T06:15:27.012Z,89.73
2019-01-31T06:16:26.975Z,89.64
2019-01-31T06:17:26.940Z,89.36
2019-01-31T06:18:26.909Z,88.89
2019-01-31T06:19:26.851Z,88.79
2019-01-31T06:20:26.815Z,88.60
2019-01-31T06:21:26.771Z,89.07
2019-01-31T06:22:26.749Z,88.98
2019-01-31T06:23:26.695Z,88.51
2019-01-31T06:24:26.652Z,88.42
2019-01-31T06:25:26.612Z,88.60
2019-01-31T06:26:26.559Z,88.42
2019-01-31T06:27:26.520Z,88.13
2019-01-31T06:28:26.477Z,88.32
2019-01-31T06:29:26.439Z,88.89
2019-01-31T06:30:26.401Z,88.89
2019-01-31T06:31:26.355Z,88.98
2019-01-31T06:32:26.321Z,88.98
2019-01-31T06:33:28.397Z,88.98
2019-01-31T06:34:26.226Z,88.98
2019-01-31T06:35:26.183Z,89.45
2019-01-31T06:36:26.151Z,90.40
2019-01-31T06:37:26.110Z,89.92
2019-01-31T06:38:26.071Z,89.92
2019-01-31T06:39:26.025Z,89.92
2019-01-31T06:40:25.987Z,89.45
2019-01-31T06:41:25.940Z,90.02
2019-01-31T06:42:25.902Z,89.64
2019-01-31T06:43:25.865Z,89.54
2019-01-31T06:44:25.810Z,89.73
2019-01-31T06:45:25.776Z,90.11
2019-01-31T06:46:25.750Z,91.34
2019-01-31T06:47:25.691Z,90.68
2019-01-31T06:48:25.657Z,90.96
2019-01-31T06:49:25.612Z,90.87
2019-01-31T06:50:25.573Z,90.30
2019-01-31T06:51:25.531Z,90.59
2019-01-31T06:52:25.491Z,90.68
2019-01-31T06:53:25.445Z,90.87
2019-01-31T06:54:25.447Z,90.96
2019-01-31T06:55:25.370Z,90.87
2019-01-31T06:56:25.327Z,90.59
2019-01-31T06:57:25.286Z,90.40
2019-01-31T06:58:25.242Z,91.34
2019-01-31T06:59:25.212Z,90.96
2019-01-31T07:00:25.160Z,90.96
2019-01-31T07:01:25.115Z,91.34
2019-01-31T07:02:25.072Z,91.11
2019-01-31T07:03:25.036Z,91.06
2019-01-31T07:04:24.991Z,91.58
2019-01-31T07:05:24.948Z,91.20
2019-01-31T07:06:24.919Z,90.64
2019-01-31T07:07:24.873Z,90.07
2019-01-31T07:08:24.816Z,89.88
2019-01-31T07:09:24.776Z,89.40
2019-01-31T07:10:24.753Z,90.07
2019-01-31T07:11:30.242Z,90.07
2019-01-31T07:12:24.667Z,90.07
2019-01-31T07:13:24.618Z,89.88
2019-01-31T07:14:24.581Z,90.26
2019-01-31T07:15:24.539Z,90.35
2019-01-31T07:16:24.501Z,90.16
2019-01-31T07:17:24.448Z,90.16
2019-01-31T07:18:24.413Z,90.07
2019-01-31T07:19:24.369Z,89.97
2019-01-31T07:20:24.335Z,90.07
2019-01-31T07:21:24.291Z,90.16
2019-01-31T07:22:24.257Z,90.07
2019-01-31T07:23:24.212Z,89.78
2019-01-31T07:24:24.184Z,89.88
2019-01-31T07:25:24.115Z,89.50
2019-01-31T07:26:24.082Z,89.97
2019-01-31T07:27:24.037Z,89.69
2019-01-31T07:28:23.997Z,89.78
2019-01-31T07:29:23.954Z,89.78
2019-01-31T07:30:26.727Z,89.69
2019-01-31T07:31:23.869Z,90.26
2019-01-31T07:32:23.829Z,90.16
2019-01-31T07:33:23.797Z,89.97
2019-01-31T07:34:23.745Z,89.69
2019-01-31T07:35:23.717Z,90.16
2019-01-31T07:36:23.671Z,89.69
2019-01-31T07:37:23.641Z,90.26
2019-01-31T07:38:23.582Z,89.78
2019-01-31T07:39:23.545Z,90.02
2019-01-31T07:40:23.501Z,89.64
2019-01-31T07:41:23.544Z,89.83
2019-01-31T07:42:23.415Z,88.79
2019-01-31T07:43:23.394Z,88.98
2019-01-31T07:44:23.438Z,89.17
2019-01-31T07:45:23.281Z,88.70
2019-01-31T07:46:23.265Z,89.17
2019-01-31T07:47:23.218Z,89.45
2019-01-31T07:48:23.174Z,89.73
2019-01-31T07:49:23.135Z,89.83
2019-01-31T07:50:23.091Z,89.73
2019-01-31T07:51:23.045Z,89.64
2019-01-31T07:52:23.005Z,89.64
2019-01-31T07:53:22.979Z,89.64
2019-01-31T07:54:22.919Z,89.26
2019-01-31T07:55:22.883Z,89.36
2019-01-31T07:56:22.852Z,88.60
2019-01-31T07:57:31.438Z,89.36
2019-01-31T07:59:27.194Z,88.70
2019-01-31T08:00:27.125Z,88.98
2019-01-31T08:01:27.086Z,89.07
2019-01-31T08:02:27.049Z,89.36
2019-01-31T08:03:27.009Z,89.64
2019-01-31T08:04:26.959Z,90.96
2019-01-31T08:05:26.919Z,90.30
2019-01-31T08:06:26.881Z,90.21
2019-01-31T08:07:28.752Z,90.21
2019-01-31T08:08:26.790Z,90.11
2019-01-31T08:09:26.765Z,90.30
2019-01-31T08:10:26.711Z,90.68
2019-01-31T08:11:26.676Z,90.68
2019-01-31T08:12:26.629Z,90.40
2019-01-31T08:13:26.591Z,90.77
2019-01-31T08:14:26.560Z,90.11
2019-01-31T08:15:26.519Z,90.21
2019-01-31T08:16:26.464Z,90.59
2019-01-31T08:17:26.418Z,90.77
2019-01-31T08:18:26.382Z,90.68
2019-01-31T08:19:26.347Z,90.68
2019-01-31T08:20:26.306Z,90.77
2019-01-31T08:21:26.268Z,90.68
2019-01-31T08:22:26.234Z,91.53
2019-01-31T08:23:26.184Z,91.15
2019-01-31T08:24:26.133Z,91.72
2019-01-31T08:25:26.092Z,90.40
2019-01-31T08:26:26.059Z,90.68
2019-01-31T08:27:26.020Z,91.91
2019-01-31T08:28:25.986Z,90.87
2019-01-31T08:29:25.931Z,90.30
2019-01-31T08:30:25.904Z,91.34
2019-01-31T08:31:25.854Z,91.06
2019-01-31T08:32:25.815Z,90.77
2019-01-31T08:33:28.425Z,90.87
2019-01-31T08:34:25.736Z,90.96
2019-01-31T08:35:25.698Z,90.96
2019-01-31T08:36:25.652Z,90.21
2019-01-31T08:37:25.610Z,89.83
2019-01-31T08:38:25.576Z,89.45
2019-01-31T08:39:25.520Z,89.64
2019-01-31T08:40:25.496Z,89.87
2019-01-31T08:41:25.443Z,90.35
2019-01-31T08:42:25.417Z,90.25
2019-01-31T08:43:25.373Z,90.25
2019-01-31T08:44:25.326Z,89.97
2019-01-31T08:45:25.283Z,90.44
2019-01-31T08:46:25.263Z,89.69
2019-01-31T08:47:25.198Z,90.35
2019-01-31T08:48:25.158Z,90.63
2019-01-31T08:49:25.131Z,91.10
2019-01-31T08:50:27.560Z,90.91
2019-01-31T08:51:25.048Z,89.97
2019-01-31T08:52:25.006Z,91.01
2019-01-31T08:53:24.965Z,90.16
2019-01-31T08:54:24.924Z,90.25
2019-01-31T08:55:24.881Z,90.25
2019-01-31T08:56:24.833Z,91.29
2019-01-31T08:57:24.806Z,90.82
2019-01-31T08:58:24.762Z,91.10
2019-01-31T08:59:24.722Z,89.97
2019-01-31T09:00:24.672Z,90.06
2019-01-31T09:01:24.639Z,89.03
2019-01-31T09:02:24.608Z,88.84
2019-01-31T09:03:24.551Z,89.69
2019-01-31T09:04:24.518Z,90.06
2019-01-31T09:05:24.482Z,90.16
2019-01-31T09:06:24.438Z,91.67
2019-01-31T09:07:24.410Z,90.35
2019-01-31T09:08:24.360Z,90.06
2019-01-31T09:09:24.314Z,89.59
2019-01-31T09:10:24.282Z,89.59
2019-01-31T09:11:24.239Z,89.87
2019-01-31T09:12:24.195Z,90.11
2019-01-31T09:13:24.148Z,90.01
2019-01-31T09:14:24.115Z,90.01
2019-01-31T09:15:24.088Z,90.01
2019-01-31T09:16:24.038Z,90.20
2019-01-31T09:17:23.994Z,89.83
2019-01-31T09:18:23.960Z,90.77
2019-01-31T09:19:23.918Z,90.49
2019-01-31T09:20:23.879Z,90.49
2019-01-31T09:21:23.833Z,90.11
2019-01-31T09:22:23.800Z,89.92
2019-01-31T09:23:23.758Z,90.49
2019-01-31T09:24:23.730Z,90.20
2019-01-31T09:25:23.690Z,90.30
2019-01-31T09:26:23.644Z,90.30
2019-01-31T09:27:23.596Z,90.20
2019-01-31T09:28:23.557Z,91.62
2019-01-31T09:29:23.524Z,92.76
2019-01-31T09:30:23.474Z,91.72
2019-01-31T09:31:23.434Z,91.15
2019-01-31T09:32:23.393Z,91.15
2019-01-31T09:33:23.364Z,91.62
2019-01-31T09:34:23.319Z,91.96
2019-01-31T09:35:23.274Z,93.09
2019-01-31T09:36:23.240Z,92.33
2019-01-31T09:37:23.196Z,91.58
2019-01-31T09:38:23.156Z,91.58
2019-01-31T09:39:23.110Z,91.67
2019-01-31T09:40:23.084Z,91.20
2019-01-31T09:41:23.039Z,90.06
2019-01-31T09:42:26.647Z,90.68
2019-01-31T09:43:22.955Z,91.86
2019-01-31T09:44:22.920Z,90.68
2019-01-31T09:45:22.879Z,90.58
2019-01-31T09:46:22.841Z,91.15
2019-01-31T09:47:22.806Z,91.91
2019-01-31T09:48:22.762Z,92.38
2019-01-31T09:49:22.721Z,93.32
2019-01-31T09:50:22.681Z,92.85
2019-01-31T09:51:22.646Z,92.85
2019-01-31T09:52:22.603Z,93.42
2019-01-31T09:53:31.200Z,92.85
2019-01-31T09:55:36.000Z,92.76
2019-01-31T09:56:26.896Z,92.85
2019-01-31T09:57:26.856Z,92.38
2019-01-31T09:58:28.012Z,91.24
2019-01-31T09:59:26.780Z,91.34
2019-01-31T10:00:27.882Z,91.10
2019-01-31T10:01:26.700Z,90.86
2019-01-31T10:02:26.652Z,90.86
2019-01-31T10:03:26.611Z,91.24
2019-01-31T10:04:26.596Z,92.00
2019-01-31T10:05:26.541Z,91.72
2019-01-31T10:06:26.505Z,92.29
2019-01-31T10:07:26.470Z,92.10
2019-01-31T10:08:26.412Z,92.19
2019-01-31T10:09:26.377Z,92.00
2019-01-31T10:10:26.353Z,91.62
2019-01-31T10:11:26.305Z,92.14
2019-01-31T10:12:37.522Z,94.13
2019-01-31T10:13:26.275Z,93.37
2019-01-31T10:14:26.230Z,92.71
2019-01-31T10:15:26.179Z,92.52
2019-01-31T10:16:26.116Z,93.47
2019-01-31T10:17:26.104Z,93.18
2019-01-31T10:18:26.087Z,93.75
2019-01-31T10:19:26.077Z,92.71
2019-01-31T10:20:25.988Z,93.18
2019-01-31T10:21:25.913Z,94.23
2019-01-31T10:22:25.886Z,92.43
2019-01-31T10:23:25.871Z,93.37
2019-01-31T10:24:25.796Z,92.14
2019-01-31T10:25:25.750Z,93.56
2019-01-31T10:26:25.716Z,94.98
2019-01-31T10:27:25.677Z,93.75
2019-01-31T10:28:25.631Z,92.52
2019-01-31T10:29:25.598Z,92.61
2019-01-31T10:30:25.557Z,94.51
2019-01-31T10:31:25.522Z,92.71
2019-01-31T10:32:25.482Z,93.09
2019-01-31T10:33:25.483Z,92.14
2019-01-31T10:34:25.397Z,92.90
2019-01-31T10:35:25.363Z,92.52
2019-01-31T10:36:25.324Z,94.13
2019-01-31T10:37:25.282Z,92.43
2019-01-31T10:38:25.246Z,92.43
2019-01-31T10:39:25.278Z,92.90
2019-01-31T10:40:25.168Z,92.43
2019-01-31T10:41:25.128Z,92.90
2019-01-31T10:42:25.099Z,93.75
2019-01-31T10:43:25.059Z,92.80
2019-01-31T10:44:25.019Z,93.09
2019-01-31T10:45:24.971Z,92.24
2019-01-31T10:46:24.929Z,92.71
2019-01-31T10:47:24.899Z,92.43
2019-01-31T10:48:24.863Z,91.96
2019-01-31T10:49:24.823Z,92.43
2019-01-31T10:50:24.789Z,92.05
2019-01-31T10:51:24.749Z,92.71
2019-01-31T10:52:24.714Z,93.09
2019-01-31T10:53:24.667Z,93.09
2019-01-31T10:54:24.627Z,92.80
2019-01-31T10:55:24.593Z,92.52
2019-01-31T10:56:24.563Z,92.33
2019-01-31T10:57:24.508Z,92.71
2019-01-31T10:58:24.474Z,92.80
2019-01-31T10:59:24.438Z,92.52
2019-01-31T11:00:24.410Z,92.61
2019-01-31T11:01:24.355Z,92.80
2019-01-31T11:02:24.327Z,92.43
2019-01-31T11:03:24.278Z,92.43
2019-01-31T11:04:24.249Z,91.48
2019-01-31T11:05:24.195Z,91.91
2019-01-31T11:06:24.159Z,91.72
2019-01-31T11:07:24.123Z,92.47
2019-01-31T11:08:24.095Z,92.47
2019-01-31T11:09:24.048Z,91.91
2019-01-31T11:10:24.010Z,91.53
2019-01-31T11:11:23.965Z,91.15
2019-01-31T11:12:23.933Z,92.85
2019-01-31T11:13:23.890Z,92.19
2019-01-31T11:14:23.860Z,92.85
2019-01-31T11:15:23.814Z,92.66
2019-01-31T11:16:23.783Z,91.72
2019-01-31T11:17:23.738Z,92.38
2019-01-31T11:18:23.700Z,91.91
2019-01-31T11:19:23.661Z,92.19
2019-01-31T11:20:23.625Z,92.94
2019-01-31T11:21:23.605Z,92.57
2019-01-31T11:22:23.553Z,92.38
2019-01-31T11:23:23.498Z,91.81
2019-01-31T11:24:23.468Z,92.24
2019-01-31T11:25:23.426Z,93.08
2019-01-31T11:26:23.404Z,92.99
2019-01-31T11:27:23.356Z,92.05
2019-01-31T11:28:23.319Z,93.27
2019-01-31T11:29:23.275Z,93.65
2019-01-31T11:30:23.244Z,93.32
2019-01-31T11:31:23.210Z,93.89
2019-01-31T11:32:23.172Z,93.89
2019-01-31T11:33:23.129Z,92.57
2019-01-31T11:34:32.805Z,92.38
2019-01-31T11:35:23.054Z,93.70
2019-01-31T11:36:23.017Z,93.23
2019-01-31T11:37:22.976Z,93.04
2019-01-31T11:38:22.939Z,92.57
2019-01-31T11:39:22.905Z,92.80
2019-01-31T11:40:22.869Z,94.32
2019-01-31T11:41:22.830Z,94.56
2019-01-31T11:42:22.790Z,95.41
2019-01-31T11:43:22.757Z,92.57
2019-01-31T11:44:22.712Z,92.66
2019-01-31T11:45:22.686Z,92.66
2019-01-31T11:46:22.648Z,93.04
2019-01-31T11:47:22.606Z,92.57
2019-01-31T11:48:22.571Z,93.32
2019-01-31T11:49:22.531Z,92.09
2019-01-31T11:50:22.498Z,91.71
2019-01-31T11:51:22.465Z,92.42
2019-01-31T11:52:22.431Z,93.37
2019-01-31T11:53:22.392Z,91.85
2019-01-31T11:54:22.351Z,91.75
2019-01-31T11:55:22.327Z,92.71
2019-01-31T11:56:22.282Z,91.94
2019-01-31T11:57:22.242Z,91.75
2019-01-31T11:58:22.210Z,91.90
2019-01-31T11:59:22.170Z,91.24
2019-01-31T12:00:22.131Z,91.14
2019-01-31T12:01:22.168Z,91.90
2019-01-31T12:02:22.067Z,91.33
2019-01-31T12:03:22.045Z,91.14
2019-01-31T12:04:22.067Z,91.52
2019-01-31T12:05:21.958Z,91.52
2019-01-31T12:06:21.917Z,91.14
2019-01-31T12:07:21.886Z,91.99
2019-01-31T12:08:21.860Z,90.81
2019-01-31T12:09:21.811Z,90.15
2019-01-31T12:10:21.783Z,90.72
2019-01-31T12:11:21.742Z,91.28
2019-01-31T12:12:21.703Z,91.38
2019-01-31T12:13:23.477Z,90.95
2019-01-31T12:14:21.632Z,91.33
2019-01-31T12:15:21.598Z,90.86
2019-01-31T12:16:21.562Z,91.05
2019-01-31T12:17:21.522Z,90.86
2019-01-31T12:18:21.490Z,91.62
2019-01-31T12:19:21.446Z,91.52
2019-01-31T12:20:21.397Z,92.00
2019-01-31T12:21:21.376Z,92.71
2019-01-31T12:22:21.347Z,92.57
2019-01-31T12:23:21.296Z,91.62
2019-01-31T12:24:21.262Z,91.62
2019-01-31T12:25:21.299Z,91.90
2019-01-31T12:26:21.191Z,92.80
2019-01-31T12:27:21.152Z,91.47
2019-01-31T12:28:21.114Z,92.04
2019-01-31T12:29:21.078Z,91.85
2019-01-31T12:30:21.041Z,92.80
2019-01-31T12:31:21.005Z,92.42
2019-01-31T12:32:20.967Z,92.14
2019-01-31T12:33:20.928Z,92.52
2019-01-31T12:34:20.884Z,92.52
2019-01-31T12:35:20.852Z,92.66
2019-01-31T12:36:20.828Z,92.09
2019-01-31T12:37:20.784Z,93.84
2019-01-31T12:38:20.740Z,92.85
2019-01-31T12:39:20.713Z,93.08
2019-01-31T12:40:20.680Z,92.80
2019-01-31T12:41:20.632Z,89.00
2019-01-31T12:42:20.599Z,88.57
2019-01-31T12:43:20.562Z,85.34
2019-01-31T12:44:20.545Z,82.58
2019-01-31T12:45:20.503Z,80.82
2019-01-31T12:46:20.464Z,79.39
2019-01-31T12:47:20.432Z,76.48
2019-01-31T12:48:20.397Z,73.91
2019-01-31T12:49:20.373Z,72.81
2019-01-31T12:50:20.329Z,70.52
2019-01-31T12:51:20.304Z,68.24
2019-01-31T12:52:20.264Z,67.03
2019-01-31T12:53:20.230Z,67.22
2019-01-31T12:54:20.198Z,66.56
2019-01-31T12:55:20.170Z,65.61
2019-01-31T12:56:20.130Z,65.23
2019-01-31T12:57:20.093Z,64.84
2019-01-31T12:58:20.065Z,64.94
2019-01-31T12:59:20.028Z,64.75
2019-01-31T13:00:20.007Z,64.75
2019-01-31T13:01:19.963Z,64.81
2019-01-31T13:02:19.930Z,65.48
2019-01-31T13:03:19.903Z,66.33
2019-01-31T13:04:20.591Z,65.77
2019-01-31T13:05:19.831Z,65.48
2019-01-31T13:06:19.802Z,65.54
2019-01-31T13:07:19.775Z,68.40
2019-01-31T13:08:19.734Z,71.44
2019-01-31T13:09:19.700Z,72.58
2019-01-31T13:10:19.668Z,71.72
2019-01-31T13:11:19.620Z,69.44
2019-01-31T13:12:19.595Z,71.91
2019-01-31T13:13:19.566Z,72.64